Portada
METAR-TAF:

METAR-TAF

Aeroports :

Jabalpur, Índia

latitud: 23-10-54N, longitud: 80-03-31E, altitud: 495 m

Observació

L'informe es va fer fa 52 minuts, a les 03:00 UTC
Vent 10 kt del Oest amb ràfegues de 20 kt
Temperatura 31°C
Humitat 46%
Pressió 1004 hPa
Visibilitat: 5000 m
Escasses núvols a una alçada de 10000 ft
calitja

METAR: VAJB 180300Z 26010G20KT 5000 HZ FEW100 31/18 Q1004

Hora: 09:22 (03:52 UTC)


TAF: manca

Observacions i pronòstics meteorològics de més de 4000 aeroports (METAR i TAF).

Les estacions disponibles són els punts grocs i vermells al mapa.

Posi el ratolí al punt desitjat per veure el nom de l'estació.

Feu clic per veure les observacions i els pronòstics meteorològics.

Per canviar el mapa: feu clic els botons verds amb una creu de color negre per apropar; al botó verd amb un guió per allunyar la imatge; o en les fletxes verdes per a mapes adjacents.


METAR-TAF: